createdAt,value
2023-04-29T00:00:54.651Z,14.53
2023-04-29T00:03:57.625Z,13.07
2023-04-29T00:07:00.331Z,13.43
2023-04-29T00:10:03.253Z,17.42
2023-04-29T00:13:06.116Z,15.05
2023-04-29T00:16:12.012Z,16.60
2023-04-29T00:19:15.072Z,14.40
2023-04-29T00:22:17.969Z,13.73
2023-04-29T00:25:20.656Z,16.55
2023-04-29T00:28:23.225Z,13.93
2023-04-29T00:31:25.744Z,12.63
2023-04-29T00:34:28.300Z,11.77
2023-04-29T00:37:30.889Z,12.70
2023-04-29T00:40:33.558Z,7.65
2023-04-29T00:43:36.242Z,10.25
2023-04-29T00:46:38.976Z,8.73
2023-04-29T00:49:42.096Z,10.13
2023-04-29T00:52:45.247Z,10.13
2023-04-29T00:55:48.900Z,13.63
2023-04-29T00:58:52.634Z,9.32
2023-04-29T01:01:55.327Z,10.43
2023-04-29T01:04:58.227Z,8.52
2023-04-29T01:08:44.334Z,9.73
2023-04-29T01:12:01.752Z,12.50
2023-04-29T01:15:40.071Z,9.02
2023-04-29T01:18:50.102Z,16.43
2023-04-29T01:21:56.191Z,12.10
2023-04-29T01:25:00.167Z,12.20
2023-04-29T01:28:21.791Z,10.68
2023-04-29T01:31:49.202Z,10.75
2023-04-29T01:34:59.949Z,9.43
2023-04-29T01:38:37.838Z,11.48
2023-04-29T01:41:52.388Z,10.18
2023-04-29T01:45:06.649Z,10.30
2023-04-29T01:48:09.907Z,11.55
2023-04-29T01:51:12.657Z,12.63
2023-04-29T01:54:15.611Z,13.30
2023-04-29T01:57:19.456Z,14.43
2023-04-29T02:00:31.263Z,11.38
2023-04-29T02:03:34.589Z,13.73
2023-04-29T02:06:38.599Z,12.07
2023-04-29T02:09:41.361Z,11.02
2023-04-29T02:12:46.892Z,9.52
2023-04-29T02:15:50.044Z,13.70
2023-04-29T02:18:53.247Z,10.10
2023-04-29T02:21:57.152Z,9.13
2023-04-29T02:25:01.662Z,10.18
2023-04-29T02:28:04.482Z,7.93
2023-04-29T02:31:07.226Z,10.18
2023-04-29T02:34:09.825Z,7.72
2023-04-29T02:37:12.753Z,7.73
2023-04-29T02:40:16.452Z,7.43
2023-04-29T02:43:19.072Z,8.30
2023-04-29T02:46:21.563Z,7.03
2023-04-29T02:49:24.161Z,6.97
2023-04-29T02:52:27.438Z,7.90
2023-04-29T02:55:30.016Z,8.30
2023-04-29T02:58:37.182Z,6.68
2023-04-29T03:01:39.980Z,5.50
2023-04-29T03:04:42.848Z,7.75
2023-04-29T03:07:45.597Z,6.07
2023-04-29T03:10:48.311Z,6.47
2023-04-29T03:13:51.321Z,5.63
2023-04-29T03:16:56.363Z,6.90
2023-04-29T03:19:59.381Z,6.57
2023-04-29T03:23:02.522Z,6.50
2023-04-29T03:26:05.669Z,6.80
2023-04-29T03:29:08.392Z,6.43
2023-04-29T03:32:10.992Z,7.88
2023-04-29T03:35:15.556Z,7.45
2023-04-29T03:38:38.791Z,7.33
2023-04-29T03:41:41.524Z,5.15
2023-04-29T03:44:44.602Z,8.23
2023-04-29T03:47:47.038Z,6.28
2023-04-29T03:50:49.905Z,7.18
2023-04-29T03:53:54.840Z,4.73
2023-04-29T03:56:57.342Z,5.28
2023-04-29T04:00:00.220Z,6.22
2023-04-29T04:03:05.510Z,8.02
2023-04-29T04:06:10.072Z,8.18
2023-04-29T04:09:12.825Z,5.87
2023-04-29T04:12:15.586Z,8.50
2023-04-29T04:15:18.643Z,9.10
2023-04-29T04:18:21.222Z,9.00
2023-04-29T04:21:23.742Z,8.68
2023-04-29T04:24:35.853Z,12.93
2023-04-29T04:27:39.644Z,9.02
2023-04-29T04:30:46.542Z,9.82
2023-04-29T04:33:49.222Z,9.13
2023-04-29T04:36:51.696Z,11.63
2023-04-29T04:39:54.339Z,9.97
2023-04-29T04:42:57.411Z,8.90
2023-04-29T04:46:00.239Z,8.80
2023-04-29T04:49:03.940Z,8.32
2023-04-29T04:52:08.860Z,6.32
2023-04-29T04:55:13.821Z,10.43
2023-04-29T04:58:20.038Z,9.82
2023-04-29T05:01:22.791Z,11.23
2023-04-29T05:04:25.658Z,10.85
2023-04-29T05:07:28.378Z,9.48
2023-04-29T05:10:37.607Z,11.20
2023-04-29T05:13:41.577Z,11.07
2023-04-29T05:16:47.348Z,11.52
2023-04-29T05:19:51.329Z,8.75
2023-04-29T05:22:54.036Z,10.70
2023-04-29T05:25:57.071Z,12.10
2023-04-29T05:28:59.904Z,8.20
2023-04-29T05:32:03.014Z,9.82
2023-04-29T05:35:07.466Z,7.80
2023-04-29T05:38:10.979Z,9.55
2023-04-29T05:41:22.150Z,9.00
2023-04-29T05:44:30.872Z,9.05
2023-04-29T05:47:33.674Z,9.07
2023-04-29T05:50:36.691Z,10.07
2023-04-29T05:53:40.669Z,10.80
2023-04-29T05:56:43.637Z,11.73
2023-04-29T05:59:46.579Z,11.82
2023-04-29T06:02:58.074Z,9.13
2023-04-29T06:06:03.580Z,8.73
2023-04-29T06:09:29.188Z,9.77
2023-04-29T06:12:35.870Z,9.63
2023-04-29T06:15:38.659Z,10.13
2023-04-29T06:18:41.588Z,9.68
2023-04-29T06:21:44.064Z,10.05
2023-04-29T06:24:47.535Z,8.75
2023-04-29T06:27:57.787Z,10.93
2023-04-29T06:31:03.301Z,11.13
2023-04-29T06:34:06.077Z,9.68
2023-04-29T06:37:12.658Z,9.88
2023-04-29T06:40:53.531Z,9.02
2023-04-29T06:44:24.812Z,11.17
2023-04-29T06:47:39.612Z,11.40
2023-04-29T06:50:58.224Z,11.52
2023-04-29T06:54:01.319Z,9.50
2023-04-29T06:57:03.838Z,10.93
2023-04-29T07:00:09.049Z,9.93
2023-04-29T07:03:12.065Z,11.02
2023-04-29T07:06:14.757Z,11.32
2023-04-29T07:09:17.428Z,9.77
2023-04-29T07:12:20.660Z,10.13
2023-04-29T07:15:23.698Z,8.63
2023-04-29T07:18:26.804Z,12.13
2023-04-29T07:21:30.764Z,9.00
2023-04-29T07:24:33.356Z,10.43
2023-04-29T07:27:36.084Z,8.32
2023-04-29T07:30:38.730Z,9.03
2023-04-29T07:33:41.476Z,9.68
2023-04-29T07:36:45.011Z,11.82
2023-04-29T07:39:47.471Z,8.35
2023-04-29T07:42:52.090Z,8.90
2023-04-29T07:45:54.739Z,7.03
2023-04-29T07:48:58.430Z,7.53
2023-04-29T07:52:02.452Z,8.85
2023-04-29T07:55:05.675Z,9.50
2023-04-29T07:58:08.193Z,6.07
2023-04-29T08:01:12.382Z,7.40
2023-04-29T08:04:16.151Z,6.68
2023-04-29T08:07:24.868Z,7.93
2023-04-29T08:10:27.664Z,7.50
2023-04-29T08:13:30.126Z,7.75
2023-04-29T08:16:32.734Z,7.17
2023-04-29T08:19:35.985Z,8.32
2023-04-29T08:22:38.472Z,7.70
2023-04-29T08:25:44.339Z,8.85
2023-04-29T08:28:46.806Z,9.90
2023-04-29T08:31:50.317Z,7.63
2023-04-29T08:34:53.392Z,9.80
2023-04-29T08:37:55.932Z,8.70
2023-04-29T08:40:58.600Z,8.82
2023-04-29T08:44:01.159Z,8.55
2023-04-29T08:47:04.868Z,6.40
2023-04-29T08:50:09.131Z,8.02
2023-04-29T08:53:14.516Z,7.10
2023-04-29T08:56:21.793Z,8.10
2023-04-29T08:59:25.618Z,7.63
2023-04-29T09:02:29.387Z,6.13
2023-04-29T09:05:34.164Z,7.65
2023-04-29T09:08:37.481Z,8.30
2023-04-29T09:11:39.970Z,7.72
2023-04-29T09:14:42.464Z,8.02
2023-04-29T09:17:49.174Z,8.83
2023-04-29T09:20:51.803Z,7.20
2023-04-29T09:23:59.512Z,7.20
2023-04-29T09:27:03.454Z,7.65
2023-04-29T09:30:06.703Z,6.50
2023-04-29T09:33:09.819Z,7.17
2023-04-29T09:36:12.837Z,6.25
2023-04-29T09:39:18.959Z,5.82
2023-04-29T09:42:21.400Z,6.38
2023-04-29T09:45:37.291Z,5.68
2023-04-29T09:48:40.001Z,5.17
2023-04-29T09:51:53.749Z,6.90
2023-04-29T09:55:05.240Z,7.03
2023-04-29T09:58:07.836Z,5.78
2023-04-29T10:01:13.334Z,6.05
2023-04-29T10:04:18.427Z,5.07
2023-04-29T10:07:22.134Z,5.72
2023-04-29T10:10:25.629Z,6.05
2023-04-29T10:13:29.743Z,4.57
2023-04-29T10:16:39.531Z,4.95
2023-04-29T10:20:08.443Z,7.67
2023-04-29T10:23:12.508Z,5.10
2023-04-29T10:26:16.594Z,6.43
2023-04-29T10:29:21.736Z,7.40
2023-04-29T10:32:26.790Z,5.53
2023-04-29T10:35:32.460Z,5.37
2023-04-29T10:38:37.405Z,5.88
2023-04-29T10:41:47.967Z,5.38
2023-04-29T10:45:19.086Z,7.07
2023-04-29T10:48:24.616Z,6.70
2023-04-29T10:51:34.053Z,4.27
2023-04-29T10:54:36.783Z,6.68
2023-04-29T10:57:39.236Z,5.78
2023-04-29T11:00:41.712Z,6.95
2023-04-29T11:03:59.961Z,6.95
2023-04-29T11:07:03.104Z,5.57
2023-04-29T11:10:07.266Z,6.85
2023-04-29T11:13:26.391Z,6.18
2023-04-29T11:16:28.919Z,5.20
2023-04-29T11:19:34.154Z,7.22
2023-04-29T11:22:36.882Z,6.27
2023-04-29T11:25:39.814Z,6.88
2023-04-29T11:28:43.662Z,8.50
2023-04-29T11:31:46.962Z,5.05
2023-04-29T11:34:49.591Z,6.25
2023-04-29T11:37:53.183Z,4.70
2023-04-29T11:40:57.095Z,8.35
2023-04-29T11:44:01.133Z,5.47
2023-04-29T11:47:04.886Z,5.10
2023-04-29T11:50:10.348Z,7.82
2023-04-29T11:53:13.128Z,5.03
2023-04-29T11:56:15.766Z,7.88
2023-04-29T11:59:19.648Z,7.95
2023-04-29T12:02:23.947Z,5.82
2023-04-29T12:05:26.994Z,7.78
2023-04-29T12:08:31.065Z,6.27
2023-04-29T12:11:34.120Z,5.95
2023-04-29T12:14:37.472Z,4.68
2023-04-29T12:17:40.901Z,5.63
2023-04-29T12:20:43.781Z,5.25
2023-04-29T12:23:46.484Z,7.80
2023-04-29T12:26:49.570Z,5.55
2023-04-29T12:29:52.977Z,5.43
2023-04-29T12:32:55.570Z,6.97
2023-04-29T12:35:59.218Z,4.90
2023-04-29T12:39:02.120Z,5.07
2023-04-29T12:42:04.590Z,7.47
2023-04-29T12:45:08.370Z,5.22
2023-04-29T12:48:22.100Z,6.88
2023-04-29T12:51:33.141Z,4.60
2023-04-29T12:54:41.124Z,6.07
2023-04-29T12:57:43.645Z,7.43
2023-04-29T13:00:46.347Z,5.85
2023-04-29T13:03:50.194Z,5.45
2023-04-29T13:07:00.006Z,6.75
2023-04-29T13:10:02.596Z,7.60
2023-04-29T13:13:05.304Z,5.80
2023-04-29T13:16:08.504Z,6.82
2023-04-29T13:19:29.541Z,6.47
2023-04-29T13:22:34.099Z,5.97
2023-04-29T13:25:36.541Z,8.27
2023-04-29T13:28:38.953Z,4.72
2023-04-29T13:31:44.708Z,6.30
2023-04-29T13:34:47.185Z,5.78
2023-04-29T13:37:49.678Z,5.00
2023-04-29T13:40:54.778Z,3.90
2023-04-29T13:43:58.583Z,6.00
2023-04-29T13:47:01.824Z,6.10
2023-04-29T13:53:40.953Z,7.10
2023-04-29T13:59:44.697Z,5.40
2023-04-29T14:05:56.844Z,5.60
2023-04-29T14:09:01.118Z,4.90
2023-04-29T14:12:04.847Z,5.10
2023-04-29T14:15:07.952Z,5.15
2023-04-29T14:18:11.793Z,4.88
2023-04-29T14:21:14.658Z,6.30
2023-04-29T14:24:17.344Z,4.70
2023-04-29T14:27:19.801Z,4.07
2023-04-29T14:30:22.532Z,5.43
2023-04-29T14:33:25.318Z,4.55
2023-04-29T14:36:28.371Z,4.53
2023-04-29T14:39:31.055Z,5.82
2023-04-29T14:42:33.812Z,4.43
2023-04-29T14:45:37.703Z,5.00
2023-04-29T14:48:40.365Z,5.78
2023-04-29T14:51:43.087Z,8.30
2023-04-29T14:54:46.212Z,4.15
2023-04-29T14:57:52.144Z,5.13
2023-04-29T15:00:54.790Z,6.70
2023-04-29T15:03:57.536Z,7.63
2023-04-29T15:07:00.441Z,6.95
2023-04-29T15:10:03.231Z,4.18
2023-04-29T15:13:06.737Z,4.37
2023-04-29T15:16:09.246Z,4.57
2023-04-29T15:19:12.662Z,4.00
2023-04-29T15:22:15.400Z,5.57
2023-04-29T15:25:18.129Z,6.32
2023-04-29T15:28:20.549Z,5.13
2023-04-29T15:31:25.086Z,4.65
2023-04-29T15:34:28.075Z,6.70
2023-04-29T15:37:30.789Z,5.93
2023-04-29T15:40:33.431Z,4.63
2023-04-29T15:43:35.938Z,5.17
2023-04-29T15:46:38.461Z,4.45
2023-04-29T15:49:42.436Z,7.50
2023-04-29T15:52:45.248Z,7.93
2023-04-29T15:55:47.743Z,5.63
2023-04-29T15:58:50.563Z,7.73
2023-04-29T16:01:53.091Z,4.18
2023-04-29T16:04:55.526Z,6.18
2023-04-29T16:07:58.082Z,4.28
2023-04-29T16:11:00.745Z,5.30
2023-04-29T16:14:03.380Z,3.80
2023-04-29T16:17:06.182Z,4.55
2023-04-29T16:20:09.151Z,7.32
2023-04-29T16:23:12.274Z,7.13
2023-04-29T16:26:14.961Z,4.47
2023-04-29T16:29:18.359Z,5.87
2023-04-29T16:32:21.104Z,5.43
2023-04-29T16:35:26.386Z,5.32
2023-04-29T16:38:28.879Z,5.13
2023-04-29T16:41:32.208Z,5.75
2023-04-29T16:44:34.771Z,7.73
2023-04-29T16:47:37.758Z,3.95
2023-04-29T16:50:40.435Z,4.88
2023-04-29T16:53:42.979Z,6.75
2023-04-29T16:56:45.517Z,5.05
2023-04-29T16:59:48.683Z,5.97
2023-04-29T17:02:51.563Z,6.03
2023-04-29T17:05:54.171Z,5.88
2023-04-29T17:08:57.049Z,5.30
2023-04-29T17:12:00.322Z,5.45
2023-04-29T17:15:03.447Z,4.93
2023-04-29T17:18:06.081Z,8.20
2023-04-29T17:21:08.941Z,4.78
2023-04-29T17:24:11.912Z,6.95
2023-04-29T17:27:14.712Z,7.57
2023-04-29T17:30:17.223Z,4.47
2023-04-29T17:33:19.917Z,5.80
2023-04-29T17:36:22.744Z,6.63
2023-04-29T17:39:25.165Z,6.47
2023-04-29T17:42:27.829Z,6.32
2023-04-29T17:45:30.499Z,7.03
2023-04-29T17:48:33.252Z,6.93
2023-04-29T17:51:36.032Z,7.80
2023-04-29T17:54:40.400Z,4.50
2023-04-29T17:57:43.032Z,7.90
2023-04-29T18:00:46.463Z,4.93
2023-04-29T18:03:50.945Z,9.02
2023-04-29T18:06:53.520Z,9.25
2023-04-29T18:09:56.536Z,7.50
2023-04-29T18:12:59.852Z,7.25
2023-04-29T18:16:02.616Z,8.37
2023-04-29T18:19:05.148Z,10.50
2023-04-29T18:22:09.431Z,8.27
2023-04-29T18:25:12.540Z,9.70
2023-04-29T18:28:24.767Z,9.75
2023-04-29T18:31:27.949Z,7.73
2023-04-29T18:34:31.476Z,8.82
2023-04-29T18:37:33.923Z,6.72
2023-04-29T18:40:37.132Z,6.97
2023-04-29T18:43:39.882Z,9.65
2023-04-29T18:46:42.408Z,10.20
2023-04-29T18:49:45.854Z,10.80
2023-04-29T18:52:48.420Z,14.07
2023-04-29T18:55:50.896Z,9.75
2023-04-29T18:58:53.537Z,12.77
2023-04-29T19:01:56.209Z,12.20
2023-04-29T19:05:02.709Z,10.05
2023-04-29T19:08:06.005Z,13.65
2023-04-29T19:11:08.554Z,14.25
2023-04-29T19:14:11.523Z,18.45
2023-04-29T19:17:14.594Z,15.50
2023-04-29T19:20:17.261Z,16.45
2023-04-29T19:23:21.416Z,14.48
2023-04-29T19:26:24.148Z,14.45
2023-04-29T19:29:27.081Z,17.05
2023-04-29T19:32:30.361Z,18.03
2023-04-29T19:35:33.833Z,20.30
2023-04-29T19:38:36.432Z,20.05
2023-04-29T19:41:38.888Z,19.63
2023-04-29T19:44:42.664Z,16.65
2023-04-29T19:47:45.232Z,16.43
2023-04-29T19:50:48.222Z,16.30
2023-04-29T19:53:51.740Z,15.95
2023-04-29T19:56:54.327Z,18.08
2023-04-29T19:59:57.309Z,20.17
2023-04-29T20:03:00.218Z,15.97
2023-04-29T20:06:04.168Z,22.05
2023-04-29T20:09:09.099Z,21.52
2023-04-29T20:12:12.012Z,21.60
2023-04-29T20:15:14.430Z,20.15
2023-04-29T20:18:18.397Z,20.77
2023-04-29T20:21:20.940Z,16.65
2023-04-29T20:24:24.018Z,21.73
2023-04-29T20:27:26.614Z,24.85
2023-04-29T20:30:29.198Z,25.30
2023-04-29T20:33:31.807Z,22.70
2023-04-29T20:36:34.635Z,27.73
2023-04-29T20:39:37.955Z,25.48
2023-04-29T20:42:40.827Z,28.42
2023-04-29T20:45:43.259Z,20.65
2023-04-29T20:48:46.127Z,19.57
2023-04-29T20:51:49.425Z,23.48
2023-04-29T20:54:52.364Z,17.77
2023-04-29T20:57:54.798Z,20.80
2023-04-29T21:00:57.383Z,20.63
2023-04-29T21:03:59.922Z,21.40
2023-04-29T21:07:03.422Z,20.25
2023-04-29T21:10:06.572Z,22.20
2023-04-29T21:13:09.256Z,20.95
2023-04-29T21:16:11.787Z,21.08
2023-04-29T21:19:14.483Z,20.20
2023-04-29T21:22:17.016Z,18.67
2023-04-29T21:25:19.451Z,18.90
2023-04-29T21:28:21.876Z,19.70
2023-04-29T21:31:24.399Z,21.55
2023-04-29T21:34:26.866Z,22.77
2023-04-29T21:37:30.657Z,20.92
2023-04-29T21:40:33.174Z,22.73
2023-04-29T21:43:35.699Z,21.92
2023-04-29T21:46:38.596Z,21.50
2023-04-29T21:49:41.902Z,17.23
2023-04-29T21:52:44.685Z,17.23
2023-04-29T21:55:47.311Z,16.05
2023-04-29T21:58:49.875Z,16.58
2023-04-29T22:02:00.255Z,15.07
2023-04-29T22:05:03.558Z,17.67
2023-04-29T22:08:07.560Z,14.30
2023-04-29T22:11:10.266Z,15.35
2023-04-29T22:14:12.760Z,15.93
2023-04-29T22:17:15.299Z,16.48
2023-04-29T22:20:18.013Z,16.93
2023-04-29T22:23:22.628Z,14.50
2023-04-29T22:26:25.567Z,19.83
2023-04-29T22:29:28.430Z,15.85
2023-04-29T22:32:31.065Z,17.55
2023-04-29T22:35:33.484Z,21.97
2023-04-29T22:38:37.907Z,18.10
2023-04-29T22:41:40.524Z,19.58
2023-04-29T22:44:43.025Z,17.00
2023-04-29T22:47:45.789Z,15.90
2023-04-29T22:50:55.797Z,16.67
2023-04-29T22:53:58.759Z,19.25
2023-04-29T22:57:01.252Z,19.08
2023-04-29T23:00:04.932Z,19.15
2023-04-29T23:03:07.502Z,15.63
2023-04-29T23:06:10.091Z,13.17
2023-04-29T23:09:12.944Z,15.82
2023-04-29T23:12:17.078Z,18.83
2023-04-29T23:15:19.484Z,14.38
2023-04-29T23:18:21.966Z,15.75
2023-04-29T23:21:27.065Z,13.13
2023-04-29T23:24:29.544Z,15.13
2023-04-29T23:27:31.991Z,14.23
2023-04-29T23:30:34.661Z,15.80
2023-04-29T23:33:37.178Z,16.48
2023-04-29T23:36:39.819Z,14.30
2023-04-29T23:39:42.405Z,14.48
2023-04-29T23:42:45.272Z,14.40
2023-04-29T23:45:47.767Z,12.75
2023-04-29T23:48:50.315Z,17.33
2023-04-29T23:51:52.733Z,17.90
2023-04-29T23:54:55.339Z,18.58
2023-04-29T23:57:57.885Z,14.35
